sensor_id;sensor_type;location;lat;lon;timestamp;pressure;altitude;pressure_sealevel;temperature;humidity
55271;BME280;41132;47.162;9.470;2022-10-16T00:01:10;96572.31;;;13.72;100.00
55271;BME280;41132;47.162;9.470;2022-10-16T00:03:37;96579.84;;;13.75;100.00
55271;BME280;41132;47.162;9.470;2022-10-16T00:06:03;96569.00;;;13.70;100.00
55271;BME280;41132;47.162;9.470;2022-10-16T00:08:29;96568.94;;;13.78;100.00
55271;BME280;41132;47.162;9.470;2022-10-16T00:11:00;96567.84;;;13.72;100.00
55271;BME280;41132;47.162;9.470;2022-10-16T00:13:25;96572.59;;;13.77;100.00
55271;BME280;41132;47.162;9.470;2022-10-16T00:15:55;96571.41;;;13.79;100.00
55271;BME280;41132;47.162;9.470;2022-10-16T00:18:21;96572.94;;;13.74;100.00
55271;BME280;41132;47.162;9.470;2022-10-16T00:20:46;96569.47;;;13.73;100.00
55271;BME280;41132;47.162;9.470;2022-10-16T00:23:11;96566.69;;;13.67;100.00
55271;BME280;41132;47.162;9.470;2022-10-16T00:25:37;96576.56;;;13.73;100.00
55271;BME280;41132;47.162;9.470;2022-10-16T00:28:02;96582.50;;;13.75;100.00
55271;BME280;41132;47.162;9.470;2022-10-16T00:30:27;96558.53;;;13.53;100.00
55271;BME280;41132;47.162;9.470;2022-10-16T00:32:54;96582.72;;;13.65;100.00
55271;BME280;41132;47.162;9.470;2022-10-16T00:35:19;96568.75;;;13.56;100.00
55271;BME280;41132;47.162;9.470;2022-10-16T00:37:45;96582.41;;;13.60;100.00
55271;BME280;41132;47.162;9.470;2022-10-16T00:40:10;96570.22;;;13.59;100.00
55271;BME280;41132;47.162;9.470;2022-10-16T00:42:35;96572.56;;;13.54;100.00
55271;BME280;41132;47.162;9.470;2022-10-16T00:45:02;96587.66;;;13.60;100.00
55271;BME280;41132;47.162;9.470;2022-10-16T00:47:37;96596.56;;;13.67;100.00
55271;BME280;41132;47.162;9.470;2022-10-16T00:50:10;96596.06;;;13.64;100.00
55271;BME280;41132;47.162;9.470;2022-10-16T00:52:41;96592.78;;;13.62;100.00
55271;BME280;41132;47.162;9.470;2022-10-16T00:55:09;96584.88;;;13.62;100.00
55271;BME280;41132;47.162;9.470;2022-10-16T00:57:35;96584.06;;;13.61;100.00
55271;BME280;41132;47.162;9.470;2022-10-16T01:00:03;96596.03;;;13.72;100.00
55271;BME280;41132;47.162;9.470;2022-10-16T01:02:29;96586.00;;;13.67;100.00
55271;BME280;41132;47.162;9.470;2022-10-16T01:04:54;96593.56;;;13.70;100.00
55271;BME280;41132;47.162;9.470;2022-10-16T01:07:30;96595.91;;;13.65;100.00
55271;BME280;41132;47.162;9.470;2022-10-16T01:12:52;96594.69;;;13.76;100.00
55271;BME280;41132;47.162;9.470;2022-10-16T01:20:30;96597.19;;;13.69;100.00
55271;BME280;41132;47.162;9.470;2022-10-16T01:29:14;96590.13;;;13.70;100.00
55271;BME280;41132;47.162;9.470;2022-10-16T01:31:44;96592.09;;;13.68;100.00
55271;BME280;41132;47.162;9.470;2022-10-16T01:34:16;96591.91;;;13.69;100.00
55271;BME280;41132;47.162;9.470;2022-10-16T01:36:55;96589.63;;;13.66;100.00
55271;BME280;41132;47.162;9.470;2022-10-16T01:39:24;96582.91;;;13.55;100.00
55271;BME280;41132;47.162;9.470;2022-10-16T01:42:02;96591.97;;;13.61;100.00
55271;BME280;41132;47.162;9.470;2022-10-16T01:44:31;96592.94;;;13.60;100.00
55271;BME280;41132;47.162;9.470;2022-10-16T01:46:58;96585.22;;;13.58;100.00
55271;BME280;41132;47.162;9.470;2022-10-16T01:49:26;96591.81;;;13.63;100.00
55271;BME280;41132;47.162;9.470;2022-10-16T01:51:56;96576.81;;;13.55;100.00
55271;BME280;41132;47.162;9.470;2022-10-16T01:54:27;96576.97;;;13.53;100.00
55271;BME280;41132;47.162;9.470;2022-10-16T01:56:55;96584.72;;;13.55;100.00
55271;BME280;41132;47.162;9.470;2022-10-16T01:59:23;96585.53;;;13.55;100.00
55271;BME280;41132;47.162;9.470;2022-10-16T02:01:56;96589.72;;;13.50;100.00
55271;BME280;41132;47.162;9.470;2022-10-16T02:04:27;96585.22;;;13.58;100.00
55271;BME280;41132;47.162;9.470;2022-10-16T02:06:55;96592.91;;;13.68;100.00
55271;BME280;41132;47.162;9.470;2022-10-16T02:09:20;96599.94;;;13.76;100.00
55271;BME280;41132;47.162;9.470;2022-10-16T02:11:46;96597.81;;;13.79;100.00
55271;BME280;41132;47.162;9.470;2022-10-16T02:14:14;96598.31;;;13.75;100.00
55271;BME280;41132;47.162;9.470;2022-10-16T02:16:44;96582.66;;;13.73;100.00
55271;BME280;41132;47.162;9.470;2022-10-16T02:19:11;96576.28;;;13.68;100.00
55271;BME280;41132;47.162;9.470;2022-10-16T02:21:51;96575.88;;;13.79;100.00
55271;BME280;41132;47.162;9.470;2022-10-16T02:24:31;96566.50;;;13.76;100.00
55271;BME280;41132;47.162;9.470;2022-10-16T02:29:49;96569.00;;;13.70;100.00
55271;BME280;41132;47.162;9.470;2022-10-16T02:32:24;96583.56;;;13.57;100.00
55271;BME280;41132;47.162;9.470;2022-10-16T02:34:54;96577.03;;;13.45;100.00
55271;BME280;41132;47.162;9.470;2022-10-16T02:37:19;96570.19;;;13.20;100.00
55271;BME280;41132;47.162;9.470;2022-10-16T02:39:45;96574.81;;;13.18;100.00
55271;BME280;41132;47.162;9.470;2022-10-16T02:42:14;96580.03;;;13.42;100.00
55271;BME280;41132;47.162;9.470;2022-10-16T02:44:40;96580.97;;;13.49;100.00
55271;BME280;41132;47.162;9.470;2022-10-16T02:47:05;96582.91;;;13.55;100.00
55271;BME280;41132;47.162;9.470;2022-10-16T02:49:31;96595.72;;;13.67;100.00
55271;BME280;41132;47.162;9.470;2022-10-16T02:51:56;96586.56;;;13.54;100.00
55271;BME280;41132;47.162;9.470;2022-10-16T02:54:21;96592.78;;;13.62;100.00
55271;BME280;41132;47.162;9.470;2022-10-16T02:56:47;96593.03;;;13.44;100.00
55271;BME280;41132;47.162;9.470;2022-10-16T02:59:12;96588.50;;;13.61;100.00
55271;BME280;41132;47.162;9.470;2022-10-16T03:01:37;96592.31;;;13.58;100.00
55271;BME280;41132;47.162;9.470;2022-10-16T03:04:03;96584.56;;;13.56;100.00
55271;BME280;41132;47.162;9.470;2022-10-16T03:06:28;96584.06;;;13.53;100.00
55271;BME280;41132;47.162;9.470;2022-10-16T03:08:54;96585.75;;;13.54;100.00
55271;BME280;41132;47.162;9.470;2022-10-16T03:11:19;96576.38;;;13.51;100.00
55271;BME280;41132;47.162;9.470;2022-10-16T03:13:44;96579.16;;;13.50;100.00
55271;BME280;41132;47.162;9.470;2022-10-16T03:16:10;96579.69;;;13.45;100.00
55271;BME280;41132;47.162;9.470;2022-10-16T03:18:35;96577.81;;;13.54;100.00
55271;BME280;41132;47.162;9.470;2022-10-16T03:21:00;96574.69;;;13.50;100.00
55271;BME280;41132;47.162;9.470;2022-10-16T03:23:26;96584.59;;;13.48;100.00
55271;BME280;41132;47.162;9.470;2022-10-16T03:25:51;96579.97;;;13.50;100.00
55271;BME280;41132;47.162;9.470;2022-10-16T03:28:17;96591.53;;;13.49;100.00
55271;BME280;41132;47.162;9.470;2022-10-16T03:30:43;96578.88;;;13.36;100.00
55271;BME280;41132;47.162;9.470;2022-10-16T03:33:09;96580.41;;;13.31;100.00
55271;BME280;41132;47.162;9.470;2022-10-16T03:35:34;96592.03;;;13.45;100.00
55271;BME280;41132;47.162;9.470;2022-10-16T03:37:59;96589.88;;;13.48;100.00
55271;BME280;41132;47.162;9.470;2022-10-16T03:40:25;96597.97;;;13.47;100.00
55271;BME280;41132;47.162;9.470;2022-10-16T03:42:51;96583.19;;;13.38;100.00
55271;BME280;41132;47.162;9.470;2022-10-16T03:45:16;96585.31;;;13.42;100.00
55271;BME280;41132;47.162;9.470;2022-10-16T03:47:42;96580.50;;;13.46;100.00
55271;BME280;41132;47.162;9.470;2022-10-16T03:50:08;96583.28;;;13.44;100.00
55271;BME280;41132;47.162;9.470;2022-10-16T03:52:33;96582.69;;;13.34;100.00
55271;BME280;41132;47.162;9.470;2022-10-16T03:54:59;96588.09;;;13.41;100.00
55271;BME280;41132;47.162;9.470;2022-10-16T03:57:24;96583.34;;;13.36;100.00
55271;BME280;41132;47.162;9.470;2022-10-16T03:59:49;96588.47;;;13.29;100.00
55271;BME280;41132;47.162;9.470;2022-10-16T04:02:15;96593.53;;;13.39;100.00
55271;BME280;41132;47.162;9.470;2022-10-16T04:04:40;96594.41;;;13.31;100.00
55271;BME280;41132;47.162;9.470;2022-10-16T04:07:05;96589.22;;;13.46;100.00
55271;BME280;41132;47.162;9.470;2022-10-16T04:09:31;96579.19;;;13.42;100.00
55271;BME280;41132;47.162;9.470;2022-10-16T04:11:56;96593.72;;;13.38;100.00
55271;BME280;41132;47.162;9.470;2022-10-16T04:14:21;96589.09;;;13.23;100.00
55271;BME280;41132;47.162;9.470;2022-10-16T04:16:47;96584.19;;;13.28;100.00
55271;BME280;41132;47.162;9.470;2022-10-16T04:19:12;96581.88;;;13.17;100.00
55271;BME280;41132;47.162;9.470;2022-10-16T04:21:38;96594.13;;;13.02;100.00
55271;BME280;41132;47.162;9.470;2022-10-16T04:24:03;96587.53;;;13.06;100.00
55271;BME280;41132;47.162;9.470;2022-10-16T04:26:29;96596.41;;;13.05;100.00
55271;BME280;41132;47.162;9.470;2022-10-16T04:28:55;96589.66;;;13.10;100.00
55271;BME280;41132;47.162;9.470;2022-10-16T04:31:20;96591.81;;;12.99;100.00
55271;BME280;41132;47.162;9.470;2022-10-16T04:33:46;96595.25;;;13.07;100.00
55271;BME280;41132;47.162;9.470;2022-10-16T04:36:11;96601.03;;;13.03;100.00
55271;BME280;41132;47.162;9.470;2022-10-16T04:38:37;96603.50;;;13.04;100.00
55271;BME280;41132;47.162;9.470;2022-10-16T04:41:05;96604.16;;;12.98;100.00
55271;BME280;41132;47.162;9.470;2022-10-16T04:43:30;96604.97;;;12.99;100.00
55271;BME280;41132;47.162;9.470;2022-10-16T04:45:56;96593.66;;;12.82;100.00
55271;BME280;41132;47.162;9.470;2022-10-16T04:48:21;96605.19;;;12.81;100.00
55271;BME280;41132;47.162;9.470;2022-10-16T04:50:47;96601.41;;;12.83;100.00
55271;BME280;41132;47.162;9.470;2022-10-16T04:53:13;96609.28;;;12.91;100.00
55271;BME280;41132;47.162;9.470;2022-10-16T04:55:38;96612.41;;;12.95;100.00
55271;BME280;41132;47.162;9.470;2022-10-16T04:58:04;96612.06;;;13.06;100.00
55271;BME280;41132;47.162;9.470;2022-10-16T05:00:29;96618.00;;;13.00;100.00
55271;BME280;41132;47.162;9.470;2022-10-16T05:02:55;96618.34;;;12.97;100.00
55271;BME280;41132;47.162;9.470;2022-10-16T05:05:20;96632.50;;;13.04;100.00
55271;BME280;41132;47.162;9.470;2022-10-16T05:07:49;96612.56;;;12.85;100.00
55271;BME280;41132;47.162;9.470;2022-10-16T05:10:15;96634.16;;;12.81;100.00
55271;BME280;41132;47.162;9.470;2022-10-16T05:12:40;96631.16;;;12.92;100.00
55271;BME280;41132;47.162;9.470;2022-10-16T05:15:06;96636.09;;;13.03;100.00
55271;BME280;41132;47.162;9.470;2022-10-16T05:17:32;96638.22;;;13.08;100.00
55271;BME280;41132;47.162;9.470;2022-10-16T05:19:57;96637.44;;;12.99;100.00
55271;BME280;41132;47.162;9.470;2022-10-16T05:22:22;96638.72;;;13.03;100.00
55271;BME280;41132;47.162;9.470;2022-10-16T05:24:48;96635.31;;;12.94;100.00
55271;BME280;41132;47.162;9.470;2022-10-16T05:27:13;96645.50;;;12.98;100.00
55271;BME280;41132;47.162;9.470;2022-10-16T05:29:45;96649.63;;;13.00;100.00
55271;BME280;41132;47.162;9.470;2022-10-16T05:32:11;96643.53;;;13.00;100.00
55271;BME280;41132;47.162;9.470;2022-10-16T05:34:36;96645.31;;;13.07;100.00
55271;BME280;41132;47.162;9.470;2022-10-16T05:37:02;96632.78;;;13.09;100.00
55271;BME280;41132;47.162;9.470;2022-10-16T05:39:27;96637.56;;;13.14;100.00
55271;BME280;41132;47.162;9.470;2022-10-16T05:41:52;96643.34;;;13.18;100.00
55271;BME280;41132;47.162;9.470;2022-10-16T05:44:18;96645.78;;;13.19;100.00
55271;BME280;41132;47.162;9.470;2022-10-16T05:46:43;96648.91;;;13.14;100.00
55271;BME280;41132;47.162;9.470;2022-10-16T05:49:08;96651.25;;;13.18;100.00
55271;BME280;41132;47.162;9.470;2022-10-16T05:51:34;96656.81;;;13.14;100.00
55271;BME280;41132;47.162;9.470;2022-10-16T05:53:59;96659.97;;;13.10;100.00
55271;BME280;41132;47.162;9.470;2022-10-16T05:56:24;96671.97;;;13.12;100.00
55271;BME280;41132;47.162;9.470;2022-10-16T05:58:49;96670.50;;;13.10;100.00
55271;BME280;41132;47.162;9.470;2022-10-16T06:01:17;96671.97;;;13.12;100.00
55271;BME280;41132;47.162;9.470;2022-10-16T06:03:43;96661.63;;;13.11;100.00
55271;BME280;41132;47.162;9.470;2022-10-16T06:08:39;96679.53;;;13.24;100.00
55271;BME280;41132;47.162;9.470;2022-10-16T06:11:06;96670.50;;;13.26;100.00
55271;BME280;41132;47.162;9.470;2022-10-16T06:13:32;96676.75;;;13.25;100.00
55271;BME280;41132;47.162;9.470;2022-10-16T06:15:59;96665.53;;;13.23;100.00
55271;BME280;41132;47.162;9.470;2022-10-16T06:18:26;96683.81;;;13.33;100.00
55271;BME280;41132;47.162;9.470;2022-10-16T06:20:52;96670.34;;;13.20;100.00
55271;BME280;41132;47.162;9.470;2022-10-16T06:23:18;96684.97;;;13.39;100.00
55271;BME280;41132;47.162;9.470;2022-10-16T06:25:43;96686.09;;;13.44;100.00
55271;BME280;41132;47.162;9.470;2022-10-16T06:28:09;96696.81;;;13.51;100.00
55271;BME280;41132;47.162;9.470;2022-10-16T06:30:34;96688.28;;;13.41;100.00
55271;BME280;41132;47.162;9.470;2022-10-16T06:33:00;96685.88;;;13.62;100.00
55271;BME280;41132;47.162;9.470;2022-10-16T06:35:25;96703.34;;;13.71;100.00
55271;BME280;41132;47.162;9.470;2022-10-16T06:37:52;96681.56;;;13.69;100.00
55271;BME280;41132;47.162;9.470;2022-10-16T06:40:18;96681.56;;;13.77;100.00
55271;BME280;41132;47.162;9.470;2022-10-16T06:42:43;96679.28;;;13.74;100.00
55271;BME280;41132;47.162;9.470;2022-10-16T06:45:09;96693.94;;;13.77;100.00
55271;BME280;41132;47.162;9.470;2022-10-16T06:47:34;96687.50;;;13.71;100.00
55271;BME280;41132;47.162;9.470;2022-10-16T06:50:00;96718.31;;;13.79;100.00
55271;BME280;41132;47.162;9.470;2022-10-16T06:52:28;96713.88;;;13.79;100.00
55271;BME280;41132;47.162;9.470;2022-10-16T06:54:53;96714.88;;;13.78;100.00
55271;BME280;41132;47.162;9.470;2022-10-16T06:57:18;96697.53;;;13.76;100.00
55271;BME280;41132;47.162;9.470;2022-10-16T06:59:44;96710.03;;;13.90;100.00
55271;BME280;41132;47.162;9.470;2022-10-16T07:02:09;96709.72;;;13.85;100.00
55271;BME280;41132;47.162;9.470;2022-10-16T07:04:36;96734.72;;;14.06;100.00
55271;BME280;41132;47.162;9.470;2022-10-16T07:07:01;96728.19;;;13.85;100.00
55271;BME280;41132;47.162;9.470;2022-10-16T07:09:27;96730.13;;;13.99;100.00
55271;BME280;41132;47.162;9.470;2022-10-16T07:11:52;96722.19;;;13.99;100.00
55271;BME280;41132;47.162;9.470;2022-10-16T07:14:20;96725.13;;;14.13;100.00
55271;BME280;41132;47.162;9.470;2022-10-16T07:16:47;96738.09;;;14.23;100.00
55271;BME280;41132;47.162;9.470;2022-10-16T07:19:12;96734.50;;;14.15;100.00
55271;BME280;41132;47.162;9.470;2022-10-16T07:21:40;96747.47;;;14.25;100.00
55271;BME280;41132;47.162;9.470;2022-10-16T07:24:09;96752.41;;;14.28;100.00
55271;BME280;41132;47.162;9.470;2022-10-16T07:26:36;96754.13;;;14.44;100.00
55271;BME280;41132;47.162;9.470;2022-10-16T07:29:04;96765.13;;;14.64;100.00
55271;BME280;41132;47.162;9.470;2022-10-16T07:31:29;96751.38;;;14.69;100.00
55271;BME280;41132;47.162;9.470;2022-10-16T07:33:54;96743.28;;;14.70;100.00
55271;BME280;41132;47.162;9.470;2022-10-16T07:36:21;96767.06;;;14.93;100.00
55271;BME280;41132;47.162;9.470;2022-10-16T07:38:46;96753.56;;;14.88;100.00
55271;BME280;41132;47.162;9.470;2022-10-16T07:41:15;96765.84;;;15.04;100.00
55271;BME280;41132;47.162;9.470;2022-10-16T07:43:48;96769.13;;;15.06;100.00
55271;BME280;41132;47.162;9.470;2022-10-16T07:46:14;96769.38;;;15.19;100.00
55271;BME280;41132;47.162;9.470;2022-10-16T07:48:40;96773.88;;;15.34;100.00
55271;BME280;41132;47.162;9.470;2022-10-16T07:51:06;96774.09;;;15.47;100.00
55271;BME280;41132;47.162;9.470;2022-10-16T07:53:33;96773.06;;;15.48;100.00
55271;BME280;41132;47.162;9.470;2022-10-16T07:56:03;96771.34;;;15.55;100.00
55271;BME280;41132;47.162;9.470;2022-10-16T07:58:29;96770.84;;;15.37;100.00
55271;BME280;41132;47.162;9.470;2022-10-16T08:00:55;96774.41;;;15.44;100.00
55271;BME280;41132;47.162;9.470;2022-10-16T08:03:21;96778.72;;;15.45;100.00
55271;BME280;41132;47.162;9.470;2022-10-16T08:05:47;96777.81;;;15.53;100.00
55271;BME280;41132;47.162;9.470;2022-10-16T08:08:13;96784.41;;;15.57;100.00
55271;BME280;41132;47.162;9.470;2022-10-16T08:10:39;96796.72;;;15.64;100.00
55271;BME280;41132;47.162;9.470;2022-10-16T08:13:05;96782.63;;;15.72;100.00
55271;BME280;41132;47.162;9.470;2022-10-16T08:15:30;96787.28;;;16.00;100.00
55271;BME280;41132;47.162;9.470;2022-10-16T08:18:01;96786.66;;;16.13;100.00
55271;BME280;41132;47.162;9.470;2022-10-16T08:20:28;96784.81;;;16.28;100.00
55271;BME280;41132;47.162;9.470;2022-10-16T08:22:54;96783.50;;;16.54;100.00
55271;BME280;41132;47.162;9.470;2022-10-16T08:25:20;96785.47;;;16.81;100.00
55271;BME280;41132;47.162;9.470;2022-10-16T08:27:45;96772.91;;;16.90;100.00
55271;BME280;41132;47.162;9.470;2022-10-16T08:30:11;96782.75;;;17.18;100.00
55271;BME280;41132;47.162;9.470;2022-10-16T08:32:37;96786.47;;;17.23;100.00
55271;BME280;41132;47.162;9.470;2022-10-16T08:35:02;96791.13;;;17.43;100.00
55271;BME280;41132;47.162;9.470;2022-10-16T08:37:31;96775.44;;;17.20;100.00
55271;BME280;41132;47.162;9.470;2022-10-16T08:39:57;96797.16;;;16.72;100.00
55271;BME280;41132;47.162;9.470;2022-10-16T08:42:34;96797.50;;;16.69;100.00
55271;BME280;41132;47.162;9.470;2022-10-16T08:47:47;96800.00;;;16.70;100.00
55271;BME280;41132;47.162;9.470;2022-10-16T08:50:28;96806.88;;;16.65;100.00
55271;BME280;41132;47.162;9.470;2022-10-16T08:52:55;96791.94;;;16.79;100.00
55271;BME280;41132;47.162;9.470;2022-10-16T08:57:59;96802.00;;;17.05;100.00
55271;BME280;41132;47.162;9.470;2022-10-16T09:00:26;96788.00;;;17.11;100.00
55271;BME280;41132;47.162;9.470;2022-10-16T09:03:05;96797.28;;;17.22;100.00
55271;BME280;41132;47.162;9.470;2022-10-16T09:10:56;96793.69;;;17.58;100.00
55271;BME280;41132;47.162;9.470;2022-10-16T09:18:51;96796.47;;;17.99;100.00
55271;BME280;41132;47.162;9.470;2022-10-16T09:21:23;96798.63;;;18.17;100.00
55271;BME280;41132;47.162;9.470;2022-10-16T09:23:50;96799.03;;;18.21;100.00
55271;BME280;41132;47.162;9.470;2022-10-16T09:26:16;96796.22;;;18.29;100.00
55271;BME280;41132;47.162;9.470;2022-10-16T09:28:43;96804.03;;;18.44;97.33
55271;BME280;41132;47.162;9.470;2022-10-16T09:31:20;96794.16;;;18.72;93.12
55271;BME280;41132;47.162;9.470;2022-10-16T09:33:50;96811.72;;;18.67;96.11
55271;BME280;41132;47.162;9.470;2022-10-16T09:36:18;96810.03;;;18.59;93.47
55271;BME280;41132;47.162;9.470;2022-10-16T09:38:44;96803.34;;;18.70;88.20
55271;BME280;41132;47.162;9.470;2022-10-16T09:41:19;96814.09;;;19.10;87.56
55271;BME280;41132;47.162;9.470;2022-10-16T09:46:27;96810.63;;;19.16;96.77
55271;BME280;41132;47.162;9.470;2022-10-16T09:49:01;96806.16;;;19.43;87.55
55271;BME280;41132;47.162;9.470;2022-10-16T09:51:31;96803.13;;;19.46;95.73
55271;BME280;41132;47.162;9.470;2022-10-16T09:56:36;96802.88;;;19.41;81.09
55271;BME280;41132;47.162;9.470;2022-10-16T09:59:12;96803.31;;;19.31;87.25
55271;BME280;41132;47.162;9.470;2022-10-16T10:01:41;96806.16;;;19.43;83.44
55271;BME280;41132;47.162;9.470;2022-10-16T10:04:08;96803.13;;;19.46;81.96
55271;BME280;41132;47.162;9.470;2022-10-16T10:06:36;96800.03;;;19.63;77.35
55271;BME280;41132;47.162;9.470;2022-10-16T10:09:17;96792.09;;;19.69;81.75
55271;BME280;41132;47.162;9.470;2022-10-16T10:11:49;96805.41;;;19.76;81.79
55271;BME280;41132;47.162;9.470;2022-10-16T10:14:21;96799.03;;;19.77;79.04
55271;BME280;41132;47.162;9.470;2022-10-16T10:16:48;96791.44;;;19.60;88.43
55271;BME280;41132;47.162;9.470;2022-10-16T10:19:19;96802.47;;;19.64;86.25
55271;BME280;41132;47.162;9.470;2022-10-16T10:21:45;96787.53;;;19.50;81.47
55271;BME280;41132;47.162;9.470;2022-10-16T10:24:16;96796.97;;;19.52;84.12
55271;BME280;41132;47.162;9.470;2022-10-16T10:26:49;96795.13;;;19.26;90.71
55271;BME280;41132;47.162;9.470;2022-10-16T10:29:37;96799.41;;;19.34;88.22
55271;BME280;41132;47.162;9.470;2022-10-16T10:34:42;96796.34;;;19.17;100.00
55271;BME280;41132;47.162;9.470;2022-10-16T10:37:17;96789.13;;;19.04;100.00
55271;BME280;41132;47.162;9.470;2022-10-16T10:39:57;96793.00;;;18.95;100.00
55271;BME280;41132;47.162;9.470;2022-10-16T10:42:43;96785.22;;;18.87;100.00
55271;BME280;41132;47.162;9.470;2022-10-16T10:45:23;96785.44;;;18.85;100.00
55271;BME280;41132;47.162;9.470;2022-10-16T10:56:24;96772.31;;;18.77;97.19
55271;BME280;41132;47.162;9.470;2022-10-16T11:01:56;96763.16;;;19.13;95.92
55271;BME280;41132;47.162;9.470;2022-10-16T11:07:16;96755.81;;;19.15;100.00
55271;BME280;41132;47.162;9.470;2022-10-16T11:10:05;96754.16;;;19.27;100.00
55271;BME280;41132;47.162;9.470;2022-10-16T11:12:38;96754.78;;;19.23;100.00
55271;BME280;41132;47.162;9.470;2022-10-16T11:15:10;96750.88;;;19.18;95.96
55271;BME280;41132;47.162;9.470;2022-10-16T11:17:48;96737.81;;;19.17;100.00
55271;BME280;41132;47.162;9.470;2022-10-16T11:20:25;96743.94;;;19.24;99.88
55271;BME280;41132;47.162;9.470;2022-10-16T11:22:55;96739.63;;;19.30;93.13
55271;BME280;41132;47.162;9.470;2022-10-16T11:25:32;96736.34;;;19.28;93.30
55271;BME280;41132;47.162;9.470;2022-10-16T11:30:52;96743.94;;;19.24;100.00
55271;BME280;41132;47.162;9.470;2022-10-16T11:33:49;96733.50;;;19.43;99.98
55271;BME280;41132;47.162;9.470;2022-10-16T11:36:40;96729.19;;;19.41;96.19
55271;BME280;41132;47.162;9.470;2022-10-16T11:39:21;96732.47;;;19.44;94.10
55271;BME280;41132;47.162;9.470;2022-10-16T11:41:53;96732.47;;;19.44;100.00
55271;BME280;41132;47.162;9.470;2022-10-16T11:47:51;96719.16;;;19.44;95.16
55271;BME280;41132;47.162;9.470;2022-10-16T11:50:24;96726.75;;;19.47;94.26
55271;BME280;41132;47.162;9.470;2022-10-16T11:55:39;96705.84;;;19.57;97.89
55271;BME280;41132;47.162;9.470;2022-10-16T12:01:15;96709.09;;;19.79;93.79
55271;BME280;41132;47.162;9.470;2022-10-16T12:04:06;96712.59;;;19.53;93.38
55271;BME280;41132;47.162;9.470;2022-10-16T12:07:19;96703.41;;;19.49;94.65
55271;BME280;41132;47.162;9.470;2022-10-16T12:09:39;96710.34;;;19.50;99.34
55271;BME280;41132;47.162;9.470;2022-10-16T12:12:24;96707.50;;;19.58;88.64
55271;BME280;41132;47.162;9.470;2022-10-16T12:15:00;96707.25;;;19.59;90.96
55271;BME280;41132;47.162;9.470;2022-10-16T12:17:35;96703.63;;;19.27;100.00
55271;BME280;41132;47.162;9.470;2022-10-16T12:20:19;96697.06;;;19.23;100.00
55271;BME280;41132;47.162;9.470;2022-10-16T12:22:55;96701.56;;;19.16;100.00
55271;BME280;41132;47.162;9.470;2022-10-16T12:25:29;96709.97;;;19.26;100.00
55271;BME280;41132;47.162;9.470;2022-10-16T12:28:00;96705.88;;;19.17;100.00
55271;BME280;41132;47.162;9.470;2022-10-16T12:30:28;96715.69;;;19.16;100.00
55271;BME280;41132;47.162;9.470;2022-10-16T12:33:06;96707.94;;;19.15;100.00
55271;BME280;41132;47.162;9.470;2022-10-16T12:35:45;96687.66;;;19.07;100.00
55271;BME280;41132;47.162;9.470;2022-10-16T12:38:15;96699.34;;;19.13;100.00
55271;BME280;41132;47.162;9.470;2022-10-16T12:40:43;96698.28;;;19.14;99.39
55271;BME280;41132;47.162;9.470;2022-10-16T12:43:39;96689.06;;;19.23;100.00
55271;BME280;41132;47.162;9.470;2022-10-16T12:48:38;96688.06;;;19.17;98.94
55271;BME280;41132;47.162;9.470;2022-10-16T12:51:24;96691.75;;;19.10;100.00
55271;BME280;41132;47.162;9.470;2022-10-16T12:54:03;96690.72;;;19.17;100.00
55271;BME280;41132;47.162;9.470;2022-10-16T12:59:13;96678.03;;;19.26;100.00
55271;BME280;41132;47.162;9.470;2022-10-16T13:04:39;96673.91;;;19.37;100.00
55271;BME280;41132;47.162;9.470;2022-10-16T13:07:35;96675.97;;;19.41;100.00
55271;BME280;41132;47.162;9.470;2022-10-16T13:13:16;96674.53;;;19.32;100.00
55271;BME280;41132;47.162;9.470;2022-10-16T13:15:56;96661.47;;;19.31;100.00
55271;BME280;41132;47.162;9.470;2022-10-16T13:27:44;96657.16;;;19.16;100.00
55271;BME280;41132;47.162;9.470;2022-10-16T13:30:29;96665.34;;;19.28;100.00
55271;BME280;41132;47.162;9.470;2022-10-16T13:33:04;96653.69;;;19.23;100.00
55271;BME280;41132;47.162;9.470;2022-10-16T13:35:34;96651.03;;;19.16;100.00
55271;BME280;41132;47.162;9.470;2022-10-16T13:38:16;96668.59;;;19.37;100.00
55271;BME280;41132;47.162;9.470;2022-10-16T13:40:59;96673.72;;;19.38;100.00
55271;BME280;41132;47.162;9.470;2022-10-16T13:43:35;96673.53;;;19.33;100.00
55271;BME280;41132;47.162;9.470;2022-10-16T13:46:18;96671.28;;;19.30;100.00
55271;BME280;41132;47.162;9.470;2022-10-16T13:48:56;96668.00;;;19.35;100.00
55271;BME280;41132;47.162;9.470;2022-10-16T13:51:22;96661.25;;;19.26;100.00
55271;BME280;41132;47.162;9.470;2022-10-16T13:53:48;96671.69;;;19.34;100.00
55271;BME280;41132;47.162;9.470;2022-10-16T13:56:19;96672.09;;;19.31;100.00
55271;BME280;41132;47.162;9.470;2022-10-16T13:58:46;96671.88;;;19.26;100.00
55271;BME280;41132;47.162;9.470;2022-10-16T14:03:42;96681.09;;;19.23;100.00
55271;BME280;41132;47.162;9.470;2022-10-16T14:06:20;96665.38;;;19.15;100.00
55271;BME280;41132;47.162;9.470;2022-10-16T14:09:04;96674.16;;;19.22;100.00
55271;BME280;41132;47.162;9.470;2022-10-16T14:11:31;96674.97;;;19.29;100.00
55271;BME280;41132;47.162;9.470;2022-10-16T14:13:57;96654.50;;;19.16;100.00
55271;BME280;41132;47.162;9.470;2022-10-16T14:16:26;96668.03;;;19.15;100.00
55271;BME280;41132;47.162;9.470;2022-10-16T14:18:58;96661.66;;;19.03;100.00
55271;BME280;41132;47.162;9.470;2022-10-16T14:21:25;96682.56;;;19.12;100.00
55271;BME280;41132;47.162;9.470;2022-10-16T14:23:52;96654.91;;;19.00;100.00
55271;BME280;41132;47.162;9.470;2022-10-16T14:26:21;96670.69;;;19.08;100.00
55271;BME280;41132;47.162;9.470;2022-10-16T14:28:48;96685.22;;;19.06;100.00
55271;BME280;41132;47.162;9.470;2022-10-16T14:31:32;96680.50;;;19.01;100.00
55271;BME280;41132;47.162;9.470;2022-10-16T14:33:58;96672.53;;;19.01;100.00